createdAt,value
2016-09-07T00:00:30.414Z,0
2016-09-07T00:01:30.441Z,0
2016-09-07T00:02:30.458Z,0
2016-09-07T00:03:30.480Z,0
2016-09-07T00:04:30.503Z,0
2016-09-07T00:05:30.528Z,0
2016-09-07T00:06:30.553Z,0
2016-09-07T00:07:30.591Z,0
2016-09-07T00:08:30.590Z,0
2016-09-07T00:09:30.615Z,0
2016-09-07T00:10:30.651Z,0
2016-09-07T00:11:30.658Z,0
2016-09-07T00:12:30.681Z,0
2016-09-07T00:13:30.702Z,0
2016-09-07T00:14:30.731Z,0
2016-09-07T00:15:30.752Z,0
2016-09-07T00:16:30.772Z,0
2016-09-07T00:17:30.792Z,0
2016-09-07T00:18:30.824Z,0
2016-09-07T00:19:30.864Z,0
2016-09-07T00:20:31.313Z,0
2016-09-07T00:21:30.889Z,0
2016-09-07T00:22:30.912Z,0
2016-09-07T00:23:30.932Z,0
2016-09-07T00:24:30.958Z,0
2016-09-07T00:25:30.979Z,0
2016-09-07T00:26:31.001Z,0
2016-09-07T00:27:31.135Z,0
2016-09-07T00:28:31.135Z,0
2016-09-07T00:29:31.185Z,0
2016-09-07T00:30:31.183Z,0
2016-09-07T00:31:31.219Z,0
2016-09-07T00:32:31.294Z,0
2016-09-07T00:33:31.314Z,0
2016-09-07T00:34:31.305Z,0
2016-09-07T00:35:31.318Z,0
2016-09-07T00:36:31.316Z,0
2016-09-07T00:37:31.462Z,0
2016-09-07T00:38:31.466Z,0
2016-09-07T00:39:31.483Z,0
2016-09-07T00:40:31.492Z,0
2016-09-07T00:41:31.502Z,0
2016-09-07T00:42:31.498Z,0
2016-09-07T00:43:31.509Z,0
2016-09-07T00:44:31.481Z,0
2016-09-07T00:45:31.486Z,0
2016-09-07T00:46:31.492Z,0
2016-09-07T00:47:31.491Z,0
2016-09-07T00:48:31.513Z,0
2016-09-07T00:49:31.517Z,0
2016-09-07T00:50:31.540Z,0
2016-09-07T00:51:31.575Z,0
2016-09-07T00:52:31.581Z,0
2016-09-07T00:53:31.608Z,0
2016-09-07T00:54:31.630Z,0
2016-09-07T00:55:31.659Z,0
2016-09-07T00:56:31.676Z,0
2016-09-07T00:57:32.010Z,0
2016-09-07T00:58:31.738Z,0
2016-09-07T00:59:31.746Z,0
2016-09-07T01:00:31.786Z,0
2016-09-07T01:01:31.792Z,0
2016-09-07T01:02:31.821Z,0
2016-09-07T01:03:31.831Z,0
2016-09-07T01:04:31.860Z,0
2016-09-07T01:05:31.876Z,0
2016-09-07T01:06:31.908Z,0
2016-09-07T01:07:31.933Z,0
2016-09-07T01:08:31.946Z,0
2016-09-07T01:09:31.977Z,0
2016-09-07T01:10:31.992Z,0
2016-09-07T01:11:32.019Z,0
2016-09-07T01:12:32.037Z,0
2016-09-07T01:13:32.058Z,0
2016-09-07T01:14:32.076Z,0
2016-09-07T01:15:32.101Z,0
2016-09-07T01:16:32.122Z,0
2016-09-07T01:17:32.151Z,0
2016-09-07T01:18:32.186Z,0
2016-09-07T01:19:32.186Z,0
2016-09-07T01:20:32.219Z,0
2016-09-07T01:21:32.235Z,0
2016-09-07T01:22:32.261Z,0
2016-09-07T01:23:32.278Z,0
2016-09-07T01:24:32.296Z,0
2016-09-07T01:25:32.323Z,0
2016-09-07T01:26:32.353Z,0
2016-09-07T01:27:32.371Z,0
2016-09-07T01:28:32.387Z,0
2016-09-07T01:29:32.414Z,0
2016-09-07T01:30:32.437Z,0
2016-09-07T01:31:32.456Z,0
2016-09-07T01:32:32.479Z,0
2016-09-07T01:33:32.507Z,0
2016-09-07T01:34:32.524Z,0
2016-09-07T01:35:32.555Z,0
2016-09-07T01:36:32.579Z,0
2016-09-07T01:37:32.588Z,0
2016-09-07T01:38:32.630Z,0
2016-09-07T01:39:32.635Z,0
2016-09-07T01:40:32.659Z,0
2016-09-07T01:41:32.674Z,0
2016-09-07T01:42:32.706Z,0
2016-09-07T01:43:32.716Z,0
2016-09-07T01:44:32.750Z,0
2016-09-07T01:45:32.770Z,0
2016-09-07T01:46:32.792Z,0
2016-09-07T01:47:32.814Z,0
2016-09-07T01:48:32.831Z,0
2016-09-07T01:49:32.857Z,0
2016-09-07T01:50:32.875Z,0
2016-09-07T01:51:32.898Z,0
2016-09-07T01:52:32.921Z,0
2016-09-07T01:53:32.951Z,0
2016-09-07T01:54:32.967Z,0
2016-09-07T01:55:33.005Z,0
2016-09-07T01:56:33.008Z,0
2016-09-07T01:57:33.037Z,0
2016-09-07T01:58:33.172Z,0
2016-09-07T01:59:33.193Z,0
2016-09-07T02:00:33.210Z,0
2016-09-07T02:01:33.327Z,0
2016-09-07T02:02:33.340Z,0
2016-09-07T02:03:33.347Z,0
2016-09-07T02:04:33.358Z,0
2016-09-07T02:05:33.369Z,0
2016-09-07T02:06:33.369Z,0
2016-09-07T02:07:33.506Z,0
2016-09-07T02:08:33.386Z,0
2016-09-07T02:09:33.700Z,0
2016-09-07T02:10:33.538Z,0
2016-09-07T02:11:33.535Z,0
2016-09-07T02:12:33.549Z,0
2016-09-07T02:13:33.457Z,0
2016-09-07T02:14:33.506Z,0
2016-09-07T02:15:33.503Z,0
2016-09-07T02:16:33.531Z,0
2016-09-07T02:17:33.550Z,0
2016-09-07T02:18:33.551Z,0
2016-09-07T02:19:33.567Z,0
2016-09-07T02:20:33.560Z,0
2016-09-07T02:21:33.577Z,0
2016-09-07T02:22:33.890Z,0
2016-09-07T02:23:33.601Z,0
2016-09-07T02:24:33.627Z,0
2016-09-07T02:25:33.649Z,0
2016-09-07T02:26:33.673Z,0
2016-09-07T02:27:33.689Z,0
2016-09-07T02:28:33.737Z,0
2016-09-07T02:29:34.045Z,0
2016-09-07T02:30:33.753Z,0
2016-09-07T02:31:33.777Z,0
2016-09-07T02:32:33.809Z,0
2016-09-07T02:33:33.819Z,0
2016-09-07T02:34:33.846Z,0
2016-09-07T02:35:33.860Z,0
2016-09-07T02:36:33.904Z,0
2016-09-07T02:37:33.907Z,0
2016-09-07T02:38:33.928Z,0
2016-09-07T02:39:33.955Z,0
2016-09-07T02:40:33.973Z,0
2016-09-07T02:41:33.994Z,0
2016-09-07T02:42:34.022Z,0
2016-09-07T02:43:34.038Z,0
2016-09-07T02:44:34.066Z,0
2016-09-07T02:45:34.089Z,0
2016-09-07T02:46:34.105Z,0
2016-09-07T02:47:34.137Z,0
2016-09-07T02:48:34.144Z,0
2016-09-07T02:49:34.170Z,0
2016-09-07T02:50:34.194Z,0
2016-09-07T02:51:34.215Z,0
2016-09-07T02:52:34.236Z,0
2016-09-07T02:53:34.254Z,0
2016-09-07T02:54:34.279Z,0
2016-09-07T02:55:34.301Z,0
2016-09-07T02:56:34.321Z,0
2016-09-07T02:57:34.346Z,0
2016-09-07T02:58:34.373Z,0
2016-09-07T02:59:34.385Z,0
2016-09-07T03:00:34.418Z,0
2016-09-07T03:01:34.439Z,0
2016-09-07T03:02:34.453Z,0
2016-09-07T03:03:34.475Z,0
2016-09-07T03:04:34.501Z,0
2016-09-07T03:05:34.521Z,0
2016-09-07T03:06:34.544Z,0
2016-09-07T03:07:34.579Z,0
2016-09-07T03:08:34.595Z,0
2016-09-07T03:09:34.595Z,0
2016-09-07T03:10:34.626Z,0
2016-09-07T03:11:34.646Z,0
2016-09-07T03:12:34.667Z,0
2016-09-07T03:13:34.690Z,0
2016-09-07T03:14:34.715Z,0
2016-09-07T03:15:34.735Z,0
2016-09-07T03:16:34.756Z,0
2016-09-07T03:17:34.773Z,0
2016-09-07T03:18:34.791Z,0
2016-09-07T03:19:34.815Z,0
2016-09-07T03:20:34.850Z,0
2016-09-07T03:21:34.867Z,0
2016-09-07T03:22:34.884Z,0
2016-09-07T03:23:34.900Z,0
2016-09-07T03:24:34.929Z,0
2016-09-07T03:25:34.940Z,0
2016-09-07T03:26:34.969Z,0
2016-09-07T03:27:34.988Z,0
2016-09-07T03:28:35.014Z,0
2016-09-07T03:29:35.040Z,0
2016-09-07T03:30:35.057Z,0
2016-09-07T03:31:35.081Z,0
2016-09-07T03:32:35.099Z,0
2016-09-07T03:33:35.136Z,0
2016-09-07T03:34:35.138Z,0
2016-09-07T03:35:35.172Z,0
2016-09-07T03:36:35.184Z,0
2016-09-07T03:37:35.203Z,0
2016-09-07T03:38:35.219Z,0
2016-09-07T03:39:35.249Z,0
2016-09-07T03:40:35.591Z,0
2016-09-07T03:41:35.352Z,0
2016-09-07T03:42:35.314Z,0
2016-09-07T03:43:35.335Z,0
2016-09-07T03:44:35.359Z,0
2016-09-07T03:45:35.375Z,0
2016-09-07T03:46:35.406Z,0
2016-09-07T03:47:35.418Z,0
2016-09-07T03:48:35.445Z,0
2016-09-07T03:49:35.469Z,0
2016-09-07T03:50:35.487Z,0
2016-09-07T03:51:35.503Z,0
2016-09-07T03:52:35.526Z,0
2016-09-07T03:53:35.550Z,0
2016-09-07T03:54:35.571Z,0
2016-09-07T03:55:35.591Z,0
2016-09-07T03:56:35.614Z,0
2016-09-07T03:57:35.638Z,0
2016-09-07T03:58:35.652Z,0
2016-09-07T03:59:35.679Z,0
2016-09-07T04:00:35.699Z,0
2016-09-07T04:01:35.721Z,0
2016-09-07T04:02:35.746Z,0
2016-09-07T04:03:35.764Z,0
2016-09-07T04:04:35.793Z,0
2016-09-07T04:05:35.802Z,0
2016-09-07T04:06:35.816Z,0
2016-09-07T04:07:35.844Z,0
2016-09-07T04:08:35.870Z,0
2016-09-07T04:09:35.892Z,0
2016-09-07T04:10:35.916Z,0
2016-09-07T04:11:35.932Z,0
2016-09-07T04:12:35.963Z,4
2016-09-07T04:13:35.972Z,0
2016-09-07T04:14:36.001Z,0
2016-09-07T04:15:36.018Z,4
2016-09-07T04:16:36.048Z,4
2016-09-07T04:17:36.060Z,4
2016-09-07T04:18:36.085Z,4
2016-09-07T04:19:36.109Z,8
2016-09-07T04:20:36.121Z,4
2016-09-07T04:21:36.149Z,8
2016-09-07T04:22:36.171Z,8
2016-09-07T04:23:36.194Z,12
2016-09-07T04:24:36.210Z,12
2016-09-07T04:25:36.545Z,12
2016-09-07T04:26:36.252Z,12
2016-09-07T04:27:36.271Z,16
2016-09-07T04:28:36.297Z,16
2016-09-07T04:29:36.317Z,20
2016-09-07T04:30:36.342Z,20
2016-09-07T04:31:36.354Z,20
2016-09-07T04:32:36.384Z,24
2016-09-07T04:33:36.401Z,28
2016-09-07T04:34:36.442Z,28
2016-09-07T04:35:36.463Z,32
2016-09-07T04:36:36.464Z,36
2016-09-07T04:37:36.482Z,40
2016-09-07T04:38:36.525Z,40
2016-09-07T04:39:36.529Z,44
2016-09-07T04:40:36.570Z,48
2016-09-07T04:41:36.574Z,48
2016-09-07T04:42:36.608Z,52
2016-09-07T04:43:36.615Z,56
2016-09-07T04:44:36.639Z,60
2016-09-07T04:45:36.663Z,60
2016-09-07T04:46:36.688Z,64
2016-09-07T04:47:36.698Z,68
2016-09-07T04:48:36.723Z,72
2016-09-07T04:49:36.742Z,76
2016-09-07T04:50:36.760Z,80
2016-09-07T04:51:36.787Z,80
2016-09-07T04:52:36.801Z,84
2016-09-07T04:53:36.831Z,88
2016-09-07T04:54:36.859Z,92
2016-09-07T04:55:36.883Z,96
2016-09-07T04:56:36.911Z,100
2016-09-07T04:57:36.909Z,104
2016-09-07T04:58:36.933Z,108
2016-09-07T04:59:36.951Z,112
2016-09-07T05:00:36.983Z,116
2016-09-07T05:01:36.997Z,120
2016-09-07T05:02:37.018Z,124
2016-09-07T05:03:37.042Z,128
2016-09-07T05:04:37.060Z,132
2016-09-07T05:05:37.106Z,136
2016-09-07T05:06:37.103Z,140
2016-09-07T05:07:37.122Z,144
2016-09-07T05:08:37.145Z,148
2016-09-07T05:09:37.177Z,152
2016-09-07T05:10:37.180Z,156
2016-09-07T05:11:37.209Z,160
2016-09-07T05:12:37.230Z,164
2016-09-07T05:13:37.245Z,172
2016-09-07T05:14:37.272Z,172
2016-09-07T05:15:37.289Z,176
2016-09-07T05:16:37.315Z,180
2016-09-07T05:17:37.334Z,184
2016-09-07T05:18:37.370Z,184
2016-09-07T05:19:37.377Z,188
2016-09-07T05:20:37.397Z,192
2016-09-07T05:21:37.422Z,192
2016-09-07T05:22:37.446Z,192
2016-09-07T05:23:37.459Z,196
2016-09-07T05:24:37.477Z,196
2016-09-07T05:25:37.505Z,196
2016-09-07T05:26:37.526Z,196
2016-09-07T05:27:37.551Z,196
2016-09-07T05:28:37.567Z,200
2016-09-07T05:29:37.597Z,200
2016-09-07T05:30:37.604Z,204
2016-09-07T05:31:37.632Z,204
2016-09-07T05:32:37.654Z,208
2016-09-07T05:33:37.678Z,212
2016-09-07T05:34:37.688Z,216
2016-09-07T05:35:37.724Z,216
2016-09-07T05:36:37.730Z,220
2016-09-07T05:37:37.761Z,224
2016-09-07T05:38:37.773Z,224
2016-09-07T05:39:37.812Z,224
2016-09-07T05:40:37.824Z,228
2016-09-07T05:41:37.846Z,232
2016-09-07T05:42:37.865Z,232
2016-09-07T05:43:37.882Z,236
2016-09-07T05:44:37.907Z,236
2016-09-07T05:45:37.923Z,240
2016-09-07T05:46:37.944Z,244
2016-09-07T05:47:37.960Z,248
2016-09-07T05:48:37.990Z,248
2016-09-07T05:49:38.012Z,252
2016-09-07T05:50:38.039Z,256
2016-09-07T05:51:38.052Z,260
2016-09-07T05:52:38.069Z,260
2016-09-07T05:53:38.097Z,260
2016-09-07T05:54:38.120Z,260
2016-09-07T05:55:38.132Z,260
2016-09-07T05:56:38.166Z,260
2016-09-07T05:57:38.180Z,264
2016-09-07T05:58:38.195Z,256
2016-09-07T05:59:38.220Z,256
2016-09-07T06:00:38.250Z,252
2016-09-07T06:01:38.269Z,252
2016-09-07T06:02:38.287Z,260
2016-09-07T06:03:38.320Z,264
2016-09-07T06:04:38.320Z,268
2016-09-07T06:05:38.349Z,268
2016-09-07T06:06:38.483Z,268
2016-09-07T06:07:38.501Z,272
2016-09-07T06:08:38.521Z,272
2016-09-07T06:09:38.529Z,272
2016-09-07T06:10:38.566Z,272
2016-09-07T06:11:38.571Z,272
2016-09-07T06:12:38.579Z,268
2016-09-07T06:13:38.579Z,276
2016-09-07T06:14:38.589Z,280
2016-09-07T06:15:38.596Z,284
2016-09-07T06:16:38.575Z,288
2016-09-07T06:17:38.664Z,288
2016-09-07T06:18:38.674Z,292
2016-09-07T06:19:38.682Z,296
2016-09-07T06:20:38.690Z,300
2016-09-07T06:21:38.698Z,304
2016-09-07T06:22:38.825Z,304
2016-09-07T06:23:38.822Z,308
2016-09-07T06:24:38.759Z,308
2016-09-07T06:25:38.840Z,308
2016-09-07T06:26:38.874Z,308
2016-09-07T06:27:38.871Z,308
2016-09-07T06:28:38.879Z,308
2016-09-07T06:29:38.858Z,304
2016-09-07T06:30:38.876Z,308
2016-09-07T06:31:38.892Z,304
2016-09-07T06:32:38.919Z,300
2016-09-07T06:33:38.935Z,300
2016-09-07T06:34:38.959Z,304
2016-09-07T06:35:38.984Z,308
2016-09-07T06:36:39.007Z,312
2016-09-07T06:37:39.338Z,312
2016-09-07T06:38:39.045Z,312
2016-09-07T06:39:39.056Z,312
2016-09-07T06:40:39.085Z,312
2016-09-07T06:41:39.153Z,308
2016-09-07T06:42:39.125Z,308
2016-09-07T06:43:39.151Z,312
2016-09-07T06:44:39.175Z,312
2016-09-07T06:45:39.194Z,312
2016-09-07T06:46:39.222Z,312
2016-09-07T06:47:39.238Z,312
2016-09-07T06:48:39.265Z,316
2016-09-07T06:49:39.290Z,320
2016-09-07T06:50:39.302Z,320
2016-09-07T06:51:39.323Z,320
2016-09-07T06:52:39.438Z,324
2016-09-07T06:53:39.472Z,328
2016-09-07T06:54:39.481Z,332
2016-09-07T06:55:39.411Z,340
2016-09-07T06:56:39.489Z,344
2016-09-07T06:57:39.458Z,348
2016-09-07T06:58:39.513Z,352
2016-09-07T06:59:39.501Z,356
2016-09-07T07:00:39.520Z,360
2016-09-07T07:01:39.538Z,364
2016-09-07T07:02:39.559Z,368
2016-09-07T07:03:39.577Z,372
2016-09-07T07:04:39.603Z,380
2016-09-07T07:05:39.623Z,388
2016-09-07T07:06:39.647Z,396
2016-09-07T07:07:39.984Z,400
2016-09-07T07:08:39.687Z,408
2016-09-07T07:09:39.709Z,412
2016-09-07T07:10:39.729Z,412
2016-09-07T07:11:39.759Z,408
2016-09-07T07:12:39.875Z,408
2016-09-07T07:13:39.797Z,400
2016-09-07T07:14:39.814Z,396
2016-09-07T07:15:39.847Z,392
2016-09-07T07:16:39.867Z,388
2016-09-07T07:17:39.887Z,384
2016-09-07T07:18:39.911Z,384
2016-09-07T07:19:39.937Z,392
2016-09-07T07:20:39.959Z,384
2016-09-07T07:21:39.977Z,384
2016-09-07T07:22:40.015Z,388
2016-09-07T07:23:40.332Z,396
2016-09-07T07:24:40.136Z,404
2016-09-07T07:25:40.145Z,412
2016-09-07T07:26:40.077Z,420
2016-09-07T07:27:40.109Z,436
2016-09-07T07:28:40.130Z,444
2016-09-07T07:29:40.149Z,456
2016-09-07T07:30:40.170Z,464
2016-09-07T07:31:40.306Z,464
2016-09-07T07:32:40.336Z,460
2016-09-07T07:33:40.552Z,456
2016-09-07T07:34:40.273Z,452
2016-09-07T07:35:40.289Z,444
2016-09-07T07:36:40.335Z,440
2016-09-07T07:37:40.332Z,432
2016-09-07T07:38:40.347Z,428
2016-09-07T07:39:40.385Z,424
2016-09-07T07:40:40.490Z,416
2016-09-07T07:41:40.533Z,412
2016-09-07T07:42:40.442Z,408
2016-09-07T07:43:40.465Z,408
2016-09-07T07:44:40.613Z,412
2016-09-07T07:45:40.616Z,412
2016-09-07T07:46:40.608Z,416
2016-09-07T07:47:40.551Z,416
2016-09-07T07:48:40.580Z,420
2016-09-07T07:49:40.597Z,420
2016-09-07T07:50:40.653Z,424
2016-09-07T07:51:40.644Z,424
2016-09-07T07:52:40.676Z,428
2016-09-07T07:53:40.699Z,432
2016-09-07T07:54:40.714Z,436
2016-09-07T07:55:40.740Z,440
2016-09-07T07:56:40.754Z,440
2016-09-07T07:57:40.780Z,444
2016-09-07T07:58:40.802Z,452
2016-09-07T07:59:40.834Z,452
2016-09-07T08:00:40.849Z,456
2016-09-07T08:01:40.872Z,460
2016-09-07T08:02:40.899Z,464
2016-09-07T08:03:40.917Z,468
2016-09-07T08:04:40.944Z,476
2016-09-07T08:05:40.968Z,476
2016-09-07T08:06:40.988Z,484
2016-09-07T08:07:41.010Z,492
2016-09-07T08:08:41.033Z,496
2016-09-07T08:09:41.059Z,504
2016-09-07T08:10:41.090Z,508
2016-09-07T08:11:41.110Z,508
2016-09-07T08:12:41.137Z,512
2016-09-07T08:13:41.151Z,516
2016-09-07T08:14:41.179Z,516
2016-09-07T08:15:41.199Z,516
2016-09-07T08:16:41.221Z,516
2016-09-07T08:17:41.240Z,512
2016-09-07T08:18:41.264Z,512
2016-09-07T08:19:41.296Z,508
2016-09-07T08:20:41.313Z,508
2016-09-07T08:21:41.359Z,508
2016-09-07T08:22:41.359Z,512
2016-09-07T08:23:41.384Z,512
2016-09-07T08:24:41.421Z,516
2016-09-07T08:25:41.432Z,520
2016-09-07T08:26:41.459Z,520
2016-09-07T08:27:41.473Z,516
2016-09-07T08:28:41.511Z,528
2016-09-07T08:29:41.527Z,528
2016-09-07T08:30:41.679Z,532
2016-09-07T08:31:41.569Z,532
2016-09-07T08:32:41.602Z,536
2016-09-07T08:33:41.627Z,536
2016-09-07T08:34:41.643Z,528
2016-09-07T08:35:41.667Z,520
2016-09-07T08:36:41.821Z,516
2016-09-07T08:37:41.719Z,516
2016-09-07T08:38:41.738Z,512
2016-09-07T08:39:41.760Z,508
2016-09-07T08:40:41.788Z,500
2016-09-07T08:41:41.812Z,496
2016-09-07T08:42:41.836Z,496
2016-09-07T08:43:41.860Z,500
2016-09-07T08:44:41.881Z,500
2016-09-07T08:45:41.914Z,504
2016-09-07T08:46:41.930Z,504
2016-09-07T08:47:41.956Z,508
2016-09-07T08:48:41.985Z,512
2016-09-07T08:49:42.010Z,520
2016-09-07T08:50:42.028Z,528
2016-09-07T08:51:42.067Z,532
2016-09-07T08:52:42.176Z,536
2016-09-07T08:53:42.102Z,536
2016-09-07T08:54:42.129Z,536
2016-09-07T08:55:42.154Z,536
2016-09-07T08:56:42.172Z,540
2016-09-07T08:57:42.197Z,544
2016-09-07T08:58:42.228Z,544
2016-09-07T08:59:42.247Z,548
2016-09-07T09:00:42.276Z,548
2016-09-07T09:01:42.304Z,556
2016-09-07T09:02:42.322Z,568
2016-09-07T09:03:42.347Z,576
2016-09-07T09:04:42.372Z,588
2016-09-07T09:05:42.399Z,588
2016-09-07T09:06:42.424Z,604
2016-09-07T09:07:42.450Z,616
2016-09-07T09:08:42.469Z,620
2016-09-07T09:09:42.501Z,636
2016-09-07T09:10:42.529Z,644
2016-09-07T09:11:42.549Z,652
2016-09-07T09:12:42.575Z,664
2016-09-07T09:13:42.598Z,672
2016-09-07T09:14:42.800Z,680
2016-09-07T09:15:42.651Z,684
2016-09-07T09:16:42.669Z,692
2016-09-07T09:17:42.698Z,704
2016-09-07T09:18:42.727Z,712
2016-09-07T09:19:42.749Z,716
2016-09-07T09:20:42.770Z,720
2016-09-07T09:21:42.798Z,724
2016-09-07T09:22:42.823Z,728
2016-09-07T09:23:42.853Z,732
2016-09-07T09:24:42.883Z,740
2016-09-07T09:25:42.902Z,744
2016-09-07T09:26:42.921Z,752
2016-09-07T09:27:42.947Z,756
2016-09-07T09:28:42.977Z,756
2016-09-07T09:29:42.993Z,756
2016-09-07T09:30:43.026Z,760
2016-09-07T09:31:43.058Z,760
2016-09-07T09:32:43.075Z,768
2016-09-07T09:33:43.104Z,772
2016-09-07T09:34:43.125Z,776
2016-09-07T09:35:43.153Z,784
2016-09-07T09:36:43.177Z,792
2016-09-07T09:37:43.223Z,796
2016-09-07T09:38:43.232Z,804
2016-09-07T09:39:43.262Z,808
2016-09-07T09:40:43.287Z,816
2016-09-07T09:41:43.364Z,820
2016-09-07T09:42:43.337Z,828
2016-09-07T09:43:43.361Z,828
2016-09-07T09:44:43.386Z,832
2016-09-07T09:45:43.415Z,832
2016-09-07T09:46:43.458Z,836
2016-09-07T09:47:43.465Z,844
2016-09-07T09:48:43.496Z,844
2016-09-07T09:49:43.525Z,844
2016-09-07T09:50:43.869Z,836
2016-09-07T09:51:43.574Z,836
2016-09-07T09:52:43.721Z,844
2016-09-07T09:53:43.851Z,856
2016-09-07T09:54:43.857Z,868
2016-09-07T09:55:43.880Z,872
2016-09-07T09:56:44.218Z,880
2016-09-07T09:57:43.918Z,888
2016-09-07T09:58:43.921Z,892
2016-09-07T09:59:43.936Z,904
2016-09-07T10:00:43.939Z,912
2016-09-07T10:01:44.045Z,920
2016-09-07T10:02:43.925Z,928
2016-09-07T10:03:43.888Z,936
2016-09-07T10:04:43.922Z,948
2016-09-07T10:05:43.948Z,952
2016-09-07T10:06:43.976Z,964
2016-09-07T10:07:44.001Z,972
2016-09-07T10:08:44.102Z,980
2016-09-07T10:09:44.049Z,988
2016-09-07T10:10:44.085Z,1000
2016-09-07T10:11:44.103Z,1000
2016-09-07T10:12:44.134Z,1004
2016-09-07T10:13:44.231Z,1004
2016-09-07T10:14:44.229Z,1012
2016-09-07T10:15:44.227Z,1020
2016-09-07T10:16:44.239Z,1032
2016-09-07T10:17:44.266Z,1044
2016-09-07T10:18:44.317Z,1056
2016-09-07T10:19:44.458Z,1064
2016-09-07T10:20:44.356Z,1068
2016-09-07T10:21:44.379Z,1076
2016-09-07T10:22:44.409Z,1080
2016-09-07T10:23:44.436Z,1084
2016-09-07T10:24:44.577Z,1088
2016-09-07T10:25:44.578Z,1100
2016-09-07T10:26:44.520Z,1108
2016-09-07T10:27:44.663Z,1116
2016-09-07T10:28:44.668Z,1128
2016-09-07T10:29:44.705Z,1140
2016-09-07T10:30:44.631Z,1152
2016-09-07T10:31:44.664Z,1160
2016-09-07T10:32:44.777Z,1164
2016-09-07T10:33:44.723Z,1172
2016-09-07T10:34:44.738Z,1180
2016-09-07T10:35:44.772Z,1192
2016-09-07T10:36:44.802Z,1200
2016-09-07T10:37:44.838Z,1204
2016-09-07T10:38:44.855Z,1200
2016-09-07T10:39:44.903Z,1196
2016-09-07T10:40:44.911Z,1200
2016-09-07T10:41:45.419Z,1208
2016-09-07T10:42:44.974Z,1216
2016-09-07T10:43:45.009Z,1228
2016-09-07T10:44:45.034Z,1232
2016-09-07T10:45:45.061Z,1240
2016-09-07T10:46:45.084Z,1248
2016-09-07T10:47:45.107Z,1248
2016-09-07T10:48:45.136Z,1252
2016-09-07T10:49:45.373Z,1244
2016-09-07T10:50:45.626Z,1244
2016-09-07T10:51:45.321Z,1260
2016-09-07T10:52:45.495Z,1264
2016-09-07T10:53:45.376Z,1272
2016-09-07T10:54:45.315Z,1284
2016-09-07T10:55:45.343Z,1292
2016-09-07T10:56:45.373Z,1288
2016-09-07T10:57:45.410Z,1296
2016-09-07T10:58:45.435Z,1300
2016-09-07T10:59:45.454Z,1300
2016-09-07T11:00:45.493Z,1316
2016-09-07T11:01:45.515Z,1316
2016-09-07T11:02:45.551Z,1312
2016-09-07T11:03:45.577Z,1320
2016-09-07T11:04:45.606Z,1320
2016-09-07T11:05:45.633Z,1324
2016-09-07T11:06:45.657Z,1332
2016-09-07T11:07:45.778Z,1332
2016-09-07T11:08:45.806Z,1328
2016-09-07T11:09:45.755Z,1324
2016-09-07T11:10:45.776Z,1336
2016-09-07T11:11:45.814Z,1348
2016-09-07T11:12:45.841Z,1352
2016-09-07T11:13:45.867Z,1348
2016-09-07T11:14:45.904Z,1360
2016-09-07T11:15:45.929Z,1356
2016-09-07T11:16:45.955Z,1368
2016-09-07T11:17:45.987Z,1368
2016-09-07T11:18:46.015Z,1352
2016-09-07T11:19:46.044Z,1352
2016-09-07T11:20:46.077Z,1360
2016-09-07T11:21:46.108Z,1360
2016-09-07T11:22:46.134Z,1368
2016-09-07T11:23:46.158Z,1356
2016-09-07T11:24:46.199Z,1332
2016-09-07T11:25:46.220Z,1312
2016-09-07T11:26:46.259Z,1308
2016-09-07T11:27:46.287Z,1316
2016-09-07T11:28:46.323Z,1336
2016-09-07T11:29:46.345Z,1352
2016-09-07T11:30:46.574Z,1364
2016-09-07T11:31:46.505Z,1364
2016-09-07T11:32:47.110Z,1364
2016-09-07T11:33:47.242Z,1352
2016-09-07T11:34:46.542Z,1344
2016-09-07T11:35:46.854Z,1348
2016-09-07T11:36:46.571Z,1356
2016-09-07T11:37:46.932Z,1340
2016-09-07T11:38:46.629Z,1344
2016-09-07T11:39:46.663Z,1340
2016-09-07T11:40:47.354Z,1344
2016-09-07T11:41:47.043Z,1356
2016-09-07T11:42:46.754Z,1368
2016-09-07T11:43:47.118Z,1376
2016-09-07T11:44:47.137Z,1388
2016-09-07T11:45:46.852Z,1388
2016-09-07T11:46:47.206Z,1392
2016-09-07T11:47:47.233Z,1396
2016-09-07T11:48:47.294Z,1392
2016-09-07T11:49:47.005Z,1388
2016-09-07T11:50:47.321Z,1388
2016-09-07T11:51:47.348Z,1388
2016-09-07T11:52:47.726Z,1396
2016-09-07T11:53:47.475Z,1400
2016-09-07T11:54:47.454Z,1400
2016-09-07T11:55:47.503Z,1396
2016-09-07T11:56:47.183Z,1376
2016-09-07T11:57:47.200Z,1368
2016-09-07T11:58:47.240Z,1360
2016-09-07T11:59:47.263Z,1348
2016-09-07T12:00:47.292Z,1336
2016-09-07T12:01:47.326Z,1324
2016-09-07T12:02:47.359Z,1316
2016-09-07T12:03:47.391Z,1304
2016-09-07T12:04:47.421Z,1296
2016-09-07T12:05:47.448Z,1324
2016-09-07T12:06:47.482Z,1324
2016-09-07T12:07:47.520Z,1316
2016-09-07T12:08:47.544Z,1308
2016-09-07T12:09:47.573Z,1308
2016-09-07T12:10:47.614Z,1316
2016-09-07T12:11:47.665Z,1304
2016-09-07T12:12:47.993Z,1300
2016-09-07T12:13:48.009Z,1296
2016-09-07T12:14:47.733Z,1296
2016-09-07T12:15:47.765Z,1296
2016-09-07T12:16:47.805Z,1292
2016-09-07T12:17:48.023Z,1300
2016-09-07T12:18:47.879Z,1296
2016-09-07T12:19:47.891Z,1288
2016-09-07T12:20:47.912Z,1280
2016-09-07T12:21:47.954Z,1276
2016-09-07T12:22:47.987Z,1272
2016-09-07T12:23:48.334Z,1260
2016-09-07T12:24:48.043Z,1252
2016-09-07T12:25:48.094Z,1192
2016-09-07T12:26:48.110Z,1236
2016-09-07T12:27:48.303Z,1236
2016-09-07T12:28:48.176Z,1268
2016-09-07T12:29:48.209Z,1276
2016-09-07T12:30:48.236Z,1288
2016-09-07T12:31:48.312Z,1304
2016-09-07T12:32:48.306Z,1300
2016-09-07T12:33:48.339Z,1300
2016-09-07T12:34:48.363Z,1292
2016-09-07T12:35:48.504Z,1280
2016-09-07T12:36:48.607Z,1280
2016-09-07T12:37:48.612Z,1276
2016-09-07T12:38:48.602Z,1272
2016-09-07T12:39:48.530Z,1276
2016-09-07T12:40:48.554Z,1264
2016-09-07T12:41:48.704Z,1240
2016-09-07T12:42:48.618Z,1220
2016-09-07T12:43:48.656Z,1196
2016-09-07T12:44:48.689Z,1168
2016-09-07T12:45:49.036Z,1160
2016-09-07T12:46:48.743Z,1156
2016-09-07T12:47:48.780Z,1148
2016-09-07T12:48:48.803Z,1128
2016-09-07T12:49:48.844Z,1116
2016-09-07T12:50:48.874Z,1112
2016-09-07T12:51:48.908Z,1120
2016-09-07T12:52:48.930Z,1120
2016-09-07T12:53:48.971Z,1104
2016-09-07T12:54:49.018Z,1096
2016-09-07T12:55:49.037Z,1088
2016-09-07T12:56:49.066Z,1080
2016-09-07T12:57:49.097Z,1072
2016-09-07T12:58:49.270Z,1072
2016-09-07T12:59:49.158Z,1072
2016-09-07T13:00:49.197Z,1088
2016-09-07T13:01:49.222Z,1096
2016-09-07T13:02:49.258Z,1096
2016-09-07T13:03:49.289Z,1092
2016-09-07T13:04:49.324Z,1100
2016-09-07T13:05:49.371Z,1112
2016-09-07T13:06:49.391Z,1124
2016-09-07T13:07:49.417Z,1140
2016-09-07T13:08:49.445Z,1132
2016-09-07T13:09:49.482Z,1112
2016-09-07T13:10:49.825Z,1088
2016-09-07T13:11:49.549Z,1080
2016-09-07T13:12:49.580Z,1080
2016-09-07T13:13:49.625Z,1092
2016-09-07T13:14:49.650Z,1116
2016-09-07T13:15:49.683Z,1120
2016-09-07T13:16:49.713Z,1124
2016-09-07T13:17:49.750Z,1136
2016-09-07T13:18:49.777Z,1136
2016-09-07T13:19:49.805Z,1140
2016-09-07T13:20:49.855Z,1156
2016-09-07T13:21:49.864Z,1180
2016-09-07T13:22:49.906Z,1188
2016-09-07T13:23:49.937Z,1192
2016-09-07T13:24:49.979Z,1196
2016-09-07T13:25:50.000Z,1200
2016-09-07T13:26:50.028Z,1220
2016-09-07T13:27:50.065Z,1248
2016-09-07T13:28:50.097Z,1260
2016-09-07T13:29:50.129Z,1264
2016-09-07T13:30:50.158Z,1272
2016-09-07T13:31:50.208Z,1288
2016-09-07T13:32:50.231Z,1296
2016-09-07T13:33:50.375Z,1284
2016-09-07T13:34:50.308Z,1284
2016-09-07T13:35:50.323Z,1280
2016-09-07T13:36:50.357Z,1308
2016-09-07T13:37:50.391Z,1344
2016-09-07T13:38:50.557Z,1380
2016-09-07T13:39:50.459Z,1388
2016-09-07T13:40:50.489Z,1384
2016-09-07T13:41:50.517Z,1376
2016-09-07T13:42:50.559Z,1372
2016-09-07T13:43:50.582Z,1380
2016-09-07T13:44:50.618Z,1384
2016-09-07T13:45:50.655Z,1400
2016-09-07T13:46:50.691Z,1416
2016-09-07T13:47:50.719Z,1420
2016-09-07T13:48:51.073Z,1420
2016-09-07T13:49:50.778Z,1440
2016-09-07T13:50:50.815Z,1452
2016-09-07T13:51:50.848Z,1460
2016-09-07T13:52:51.198Z,1472
2016-09-07T13:53:50.917Z,1488
2016-09-07T13:54:50.946Z,1488
2016-09-07T13:55:51.295Z,1484
2016-09-07T13:56:51.008Z,1480
2016-09-07T13:57:51.049Z,1480